Terminal Aerodrome Forecast
Issued by NWS Louisville, KY

Home | Current Version | Previous Version | Text Only | Print | Product List | Glossary On
Versions: 1 2 3 4 5 6 7 8 9 10 11 12 13 14 15
000
FTUS43 KLMK 190520
TAFLEX
TAF
KLEX 190520Z 1906/2006 15004KT P6SM SCT150
     FM190900 VRB03KT 5SM BR SCT110
     FM191200 19004KT 6SM BR BKN100
     FM191400 19006KT P6SM VCSH BKN050
     FM192200 19005KT P6SM BKN200=

USA.gov is the U.S. government's official web portal to all federal, state and local government web resources and services.